Terminal Aerodrome Forecast
Issued by NWS Springfield, MO

Home | Current Version | Previous Version | Text Only | Print | Product List | Glossary On
Versions: 1 2 3 4 5 6 7 8 9 10 11 12 13 14 15 16 17 18 19 20 21 22 23 24 25 26 27 28
000
FTUS43 KSGF 281100
TAFSGF
TAF
KSGF 281130Z 2812/2912 16015KT P6SM SKC WS020/23045KT
     FM281500 19018G27KT P6SM SKC WS020/23050KT
     FM281800 20019G29KT P6SM SKC
     FM282300 18014KT P6SM SKC WS020/22050KT
     FM290900 18015KT 6SM BR SCT012 BKN250 WS020/23050KT=

USA.gov is the U.S. government's official web portal to all federal, state and local government web resources and services.